Time;durP1;ratioP1;P1;durP2;ratioP2;P2;SDS_P1;SDS_P2;PMS_P1;PMS_P2;Temp;Humidity;BMP_temperature;BMP_pressure;BME280_temperature;BME280_humidity;BME280_pressure;Samples;Min_cycle;Max_cycle;Signal;HPM_P1;HPM_P2
2023/04/12 00:02:07;;;;;;;1.33;1.23;;;19.40;44.20;;;;;;5014259;28;20624;-67
2023/04/12 00:04:34;;;;;;;2.20;2.10;;;19.40;44.20;;;;;;5013942;28;20226;-66
2023/04/12 00:07:01;;;;;;;1.50;1.40;;;19.50;44.20;;;;;;5016373;28;20543;-67
2023/04/12 00:09:29;;;;;;;1.43;1.33;;;19.40;44.20;;;;;;5014617;28;20539;-68
2023/04/12 00:11:56;;;;;;;1.50;1.40;;;19.50;44.20;;;;;;5012378;28;20457;-67
2023/04/12 00:14:23;;;;;;;1.70;1.60;;;19.40;44.10;;;;;;5016475;28;20423;-67
2023/04/12 00:16:49;;;;;;;2.03;1.93;;;19.50;44.20;;;;;;5019078;28;20443;-67
2023/04/12 00:19:15;;;;;;;1.27;1.17;;;19.50;44.20;;;;;;5016903;28;20457;-67
2023/04/12 00:21:41;;;;;;;1.50;1.40;;;19.40;44.20;;;;;;5020011;28;21013;-67
2023/04/12 00:24:07;;;;;;;1.60;1.50;;;19.50;44.20;;;;;;5011569;28;20456;-67
2023/04/12 00:26:32;;;;;;;1.40;1.30;;;19.40;44.20;;;;;;5016711;28;20321;-66
2023/04/12 00:28:58;;;;;;;1.47;1.37;;;19.40;44.20;;;;;;5018823;28;20227;-67
2023/04/12 00:31:24;;;;;;;1.13;1.03;;;19.40;44.20;;;;;;5018313;28;20789;-67
2023/04/12 00:33:49;;;;;;;1.37;1.27;;;19.40;44.20;;;;;;5019774;28;20214;-67
2023/04/12 00:36:15;;;;;;;1.63;1.43;;;19.50;44.20;;;;;;5015690;28;20225;-67
2023/04/12 00:38:41;;;;;;;1.40;1.30;;;19.40;44.20;;;;;;5017890;28;20269;-67
2023/04/12 00:41:07;;;;;;;1.40;1.30;;;19.40;44.20;;;;;;5019300;28;21006;-67
2023/04/12 00:43:32;;;;;;;1.50;1.40;;;19.40;44.10;;;;;;5015857;28;20245;-67
2023/04/12 00:45:58;;;;;;;1.47;1.37;;;19.40;44.20;;;;;;5020594;28;20222;-67
2023/04/12 00:48:26;;;;;;;1.40;1.30;;;19.40;44.20;;;;;;5018083;28;20242;-67
2023/04/12 00:50:54;;;;;;;1.80;1.50;;;19.40;44.20;;;;;;5019771;28;20231;-66
2023/04/12 00:53:21;;;;;;;1.70;1.20;;;19.40;44.20;;;;;;5015259;28;20859;-68
2023/04/12 00:55:48;;;;;;;1.47;1.37;;;19.40;44.90;;;;;;5018369;28;20439;-67
2023/04/12 00:58:16;;;;;;;1.20;1.10;;;19.40;44.20;;;;;;5013667;28;20484;-67
2023/04/12 01:00:48;;;;;;;1.33;1.23;;;19.40;44.90;;;;;;5019945;28;20446;-67
2023/04/12 01:03:21;;;;;;;1.30;1.20;;;19.40;44.20;;;;;;5018428;28;20464;-67
2023/04/12 01:06:14;;;;;;;1.27;1.17;;;19.40;44.20;;;;;;5020828;28;20926;-67
2023/04/12 01:08:56;;;;;;;1.47;1.23;;;19.40;44.20;;;;;;5020851;28;20590;-67
2023/04/12 01:11:31;;;;;;;1.63;1.53;;;19.40;44.20;;;;;;5018742;28;20432;-67
2023/04/12 01:14:12;;;;;;;1.30;1.20;;;19.40;44.20;;;;;;5018300;28;20930;-68
2023/04/12 01:16:52;;;;;;;1.30;1.20;;;19.40;44.20;;;;;;5015058;28;20526;-67
2023/04/12 01:19:45;;;;;;;1.63;1.53;;;19.40;44.20;;;;;;5012618;28;20511;-67
2023/04/12 01:22:30;;;;;;;1.77;1.67;;;19.40;44.20;;;;;;5016063;28;21415;-68
2023/04/12 01:25:23;;;;;;;1.30;1.20;;;19.40;44.20;;;;;;5016012;28;21039;-67
2023/04/12 01:28:01;;;;;;;1.47;1.37;;;19.40;44.20;;;;;;5010567;28;20476;-67
2023/04/12 01:30:28;;;;;;;1.50;1.40;;;19.40;44.20;;;;;;5017037;28;20512;-67
2023/04/12 01:32:58;;;;;;;1.67;1.30;;;19.40;44.20;;;;;;5016709;28;20442;-67
2023/04/12 01:35:28;;;;;;;1.20;1.10;;;19.40;44.20;;;;;;5018044;28;20426;-67
2023/04/12 01:37:56;;;;;;;1.47;1.37;;;19.40;44.20;;;;;;5014607;28;20427;-67
2023/04/12 01:40:23;;;;;;;1.10;1.00;;;19.40;44.20;;;;;;5015170;28;20436;-68
2023/04/12 01:42:48;;;;;;;1.40;1.30;;;19.40;44.20;;;;;;5014688;28;20435;-67
2023/04/12 01:45:14;;;;;;;1.30;1.20;;;19.40;44.20;;;;;;5021729;28;20462;-67
2023/04/12 01:47:40;;;;;;;1.53;1.43;;;19.40;44.20;;;;;;5017664;28;20233;-67
2023/04/12 01:50:05;;;;;;;1.30;1.20;;;19.40;44.20;;;;;;5014330;28;20281;-67
2023/04/12 01:52:35;;;;;;;1.33;1.23;;;19.40;44.20;;;;;;5021421;28;20230;-67
2023/04/12 01:55:03;;;;;;;1.10;1.00;;;19.40;44.10;;;;;;5018656;28;20305;-67
2023/04/12 01:57:30;;;;;;;1.30;1.20;;;19.40;44.20;;;;;;5016837;28;20475;-67
2023/04/12 01:59:59;;;;;;;1.30;1.20;;;19.40;44.20;;;;;;5015062;28;20420;-68
2023/04/12 02:02:25;;;;;;;1.83;1.20;;;19.40;44.20;;;;;;5014840;28;20941;-67
2023/04/12 02:04:51;;;;;;;1.20;1.10;;;19.40;44.20;;;;;;5014615;28;20439;-67
2023/04/12 02:07:19;;;;;;;1.40;1.30;;;19.40;44.10;;;;;;5015317;28;20873;-67
2023/04/12 02:09:44;;;;;;;1.30;1.20;;;19.40;44.20;;;;;;5012973;28;20464;-67
2023/04/12 02:12:10;;;;;;;1.30;1.20;;;19.40;44.20;;;;;;5016061;28;20459;-67
2023/04/12 02:14:36;;;;;;;1.13;1.00;;;19.40;44.20;;;;;;5019128;28;20222;-67
2023/04/12 02:17:03;;;;;;;1.20;1.10;;;19.40;44.10;;;;;;5016075;28;20230;-66
2023/04/12 02:19:29;;;;;;;1.10;1.00;;;19.40;44.20;;;;;;5015165;28;20383;-67
2023/04/12 02:21:54;;;;;;;1.10;1.03;;;19.40;44.20;;;;;;5016234;28;20890;-67
2023/04/12 02:24:20;;;;;;;1.50;1.40;;;19.40;44.20;;;;;;5020199;28;20224;-67
2023/04/12 02:26:48;;;;;;;1.30;1.20;;;19.40;44.20;;;;;;5019642;28;20724;-67
2023/04/12 02:29:14;;;;;;;1.30;1.20;;;19.40;44.20;;;;;;5014439;28;20223;-67
2023/04/12 02:31:40;;;;;;;1.17;1.10;;;19.40;44.20;;;;;;5020189;28;20939;-67
2023/04/12 02:34:06;;;;;;;0.90;0.90;;;19.40;44.20;;;;;;5014665;28;20728;-67
2023/04/12 02:36:32;;;;;;;1.53;1.43;;;19.40;44.20;;;;;;5015557;28;20257;-66
2023/04/12 02:38:57;;;;;;;1.30;1.20;;;19.40;44.20;;;;;;5019388;28;20219;-67
2023/04/12 02:41:23;;;;;;;1.23;1.13;;;19.40;44.20;;;;;;5020523;28;20488;-67
2023/04/12 02:43:49;;;;;;;1.20;1.10;;;19.40;44.20;;;;;;5022849;28;20678;-67
2023/04/12 02:46:18;;;;;;;0.93;0.93;;;19.40;44.20;;;;;;5020514;28;20451;-67
2023/04/12 02:48:44;;;;;;;1.13;1.03;;;19.40;44.20;;;;;;5018613;28;20431;-67
2023/04/12 02:51:10;;;;;;;1.20;1.00;;;19.40;44.20;;;;;;5019639;28;20553;-67
2023/04/12 02:53:36;;;;;;;1.20;1.10;;;19.40;44.20;;;;;;5019177;28;20455;-67
2023/04/12 02:56:03;;;;;;;1.30;1.20;;;19.40;44.20;;;;;;5023726;28;20467;-66
2023/04/12 02:58:29;;;;;;;1.33;1.20;;;19.40;44.20;;;;;;5025358;28;20682;-67
2023/04/12 03:00:56;;;;;;;1.13;1.03;;;19.40;44.20;;;;;;5014203;28;20506;-67
2023/04/12 03:03:22;;;;;;;0.97;0.97;;;19.40;44.10;;;;;;5018145;28;20230;-67
2023/04/12 03:05:48;;;;;;;1.10;1.00;;;19.40;44.20;;;;;;5015514;28;20439;-67
2023/04/12 03:08:14;;;;;;;1.40;1.17;;;19.40;44.20;;;;;;5018220;28;21111;-67
2023/04/12 03:10:39;;;;;;;1.20;1.10;;;19.40;44.20;;;;;;5018901;28;20435;-67
2023/04/12 03:13:05;;;;;;;1.10;1.00;;;19.40;44.20;;;;;;5015914;28;20227;-67
2023/04/12 03:15:30;;;;;;;1.10;1.00;;;19.40;44.20;;;;;;5017712;28;20222;-67
2023/04/12 03:17:56;;;;;;;1.10;1.00;;;19.40;44.20;;;;;;5017676;28;20218;-67
2023/04/12 03:20:24;;;;;;;1.00;0.90;;;19.40;44.20;;;;;;5016831;28;20245;-67
2023/04/12 03:22:50;;;;;;;1.20;1.10;;;19.40;44.20;;;;;;5015774;28;20233;-67
2023/04/12 03:25:17;;;;;;;1.20;1.10;;;19.40;44.10;;;;;;5014584;28;20443;-67
2023/04/12 03:27:43;;;;;;;1.20;0.93;;;19.40;44.20;;;;;;5011285;28;20242;-67
2023/04/12 03:30:12;;;;;;;1.10;1.00;;;19.40;44.20;;;;;;5021291;28;20512;-67
2023/04/12 03:32:41;;;;;;;1.03;0.90;;;19.40;44.20;;;;;;5024005;28;20230;-67
2023/04/12 03:35:10;;;;;;;1.00;0.90;;;19.40;44.20;;;;;;5016705;28;20502;-68
2023/04/12 03:37:36;;;;;;;1.30;1.20;;;19.40;44.20;;;;;;5021366;28;20513;-67
2023/04/12 03:40:02;;;;;;;1.20;1.10;;;19.40;44.20;;;;;;5018000;28;20446;-66
2023/04/12 03:42:28;;;;;;;1.20;1.10;;;19.40;44.20;;;;;;5016582;28;20285;-67
2023/04/12 03:44:53;;;;;;;1.20;1.10;;;19.40;44.20;;;;;;5015774;28;20249;-67
2023/04/12 03:47:19;;;;;;;1.30;1.20;;;19.40;44.20;;;;;;5018978;28;20321;-67
2023/04/12 03:49:46;;;;;;;0.90;0.90;;;19.40;44.20;;;;;;5021088;28;20254;-67
2023/04/12 03:52:12;;;;;;;1.07;1.00;;;19.40;44.20;;;;;;5016842;28;20472;-67
2023/04/12 03:54:38;;;;;;;1.43;1.07;;;19.40;44.20;;;;;;5016238;28;20440;-67
2023/04/12 03:57:03;;;;;;;1.00;1.00;;;19.40;44.20;;;;;;5017855;28;20241;-67
2023/04/12 03:59:29;;;;;;;1.47;1.30;;;19.40;44.20;;;;;;5020913;28;20680;-67
2023/04/12 04:01:56;;;;;;;1.10;1.00;;;19.40;44.10;;;;;;5018430;28;20226;-67
2023/04/12 04:04:22;;;;;;;0.90;0.90;;;19.40;44.20;;;;;;5022383;28;21053;-69
2023/04/12 04:06:48;;;;;;;1.30;1.00;;;19.40;45.00;;;;;;5020766;28;20446;-68
2023/04/12 04:09:14;;;;;;;1.60;0.93;;;19.40;44.20;;;;;;5022568;28;20459;-69
2023/04/12 04:11:40;;;;;;;1.20;1.10;;;19.40;44.20;;;;;;5021179;28;20816;-68
2023/04/12 04:14:06;;;;;;;1.10;1.00;;;19.50;45.00;;;;;;5018954;28;20258;-67
2023/04/12 04:16:31;;;;;;;1.10;1.00;;;19.50;44.20;;;;;;5016573;28;20268;-66
2023/04/12 04:18:57;;;;;;;1.10;1.00;;;19.50;44.20;;;;;;5020523;28;20234;-67
2023/04/12 04:21:22;;;;;;;0.83;0.80;;;19.50;44.20;;;;;;5019498;28;20736;-67
2023/04/12 04:23:51;;;;;;;1.07;0.97;;;19.50;44.20;;;;;;5010850;28;20222;-67
2023/04/12 04:26:17;;;;;;;0.90;0.90;;;19.50;44.20;;;;;;5010581;28;20265;-67
2023/04/12 04:28:46;;;;;;;1.20;1.10;;;19.50;44.30;;;;;;5014118;28;20518;-67
2023/04/12 04:31:12;;;;;;;1.00;0.90;;;19.50;44.20;;;;;;5014819;28;20223;-67
2023/04/12 04:33:38;;;;;;;1.03;0.90;;;19.60;44.40;;;;;;5017370;28;20437;-67
2023/04/12 04:36:06;;;;;;;0.80;0.80;;;19.60;44.30;;;;;;5015988;28;20227;-67
2023/04/12 04:38:32;;;;;;;1.10;1.00;;;19.50;44.20;;;;;;5017014;28;20435;-66
2023/04/12 04:41:01;;;;;;;0.80;0.80;;;19.50;44.20;;;;;;5015860;28;20464;-67
2023/04/12 04:43:30;;;;;;;1.00;1.00;;;19.60;44.30;;;;;;5016378;28;20226;-68
2023/04/12 04:45:56;;;;;;;1.10;1.00;;;19.60;44.30;;;;;;5016864;28;20537;-69
2023/04/12 04:48:22;;;;;;;0.90;0.90;;;19.60;44.30;;;;;;5012077;28;20528;-67
2023/04/12 04:50:49;;;;;;;1.30;0.90;;;19.60;44.30;;;;;;5012688;28;20467;-67
2023/04/12 04:53:17;;;;;;;1.10;1.00;;;19.60;44.30;;;;;;5010096;28;21078;-67
2023/04/12 04:55:43;;;;;;;0.80;0.80;;;19.60;44.30;;;;;;5007524;28;20530;-67
2023/04/12 04:58:09;;;;;;;1.07;1.00;;;19.60;44.30;;;;;;4968980;28;20531;-67
2023/04/12 05:00:35;;;;;;;1.00;0.80;;;19.60;44.30;;;;;;5006624;28;20219;-66
2023/04/12 05:03:01;;;;;;;1.23;1.13;;;19.60;44.30;;;;;;5011679;28;20257;-67
2023/04/12 05:05:28;;;;;;;0.90;0.90;;;19.60;44.30;;;;;;5013947;28;20484;-67
2023/04/12 05:07:54;;;;;;;3.97;0.93;;;19.60;44.30;;;;;;5014170;28;20446;-67
2023/04/12 05:10:20;;;;;;;1.03;0.97;;;19.60;44.30;;;;;;5017784;28;20463;-67
2023/04/12 05:12:45;;;;;;;1.27;1.13;;;19.60;45.10;;;;;;5017506;28;20443;-67
2023/04/12 05:15:11;;;;;;;2.13;1.00;;;19.60;44.30;;;;;;5014191;28;20591;-67
2023/04/12 05:17:36;;;;;;;1.17;1.07;;;19.60;44.30;;;;;;5010071;28;20215;-67
2023/04/12 05:20:06;;;;;;;1.30;1.20;;;19.60;44.30;;;;;;5018686;28;20527;-66
2023/04/12 05:22:31;;;;;;;1.50;1.20;;;19.60;44.30;;;;;;5020926;28;20587;-67
2023/04/12 05:24:57;;;;;;;3.10;1.00;;;19.60;44.30;;;;;;5021395;28;20454;-67
2023/04/12 05:27:23;;;;;;;1.03;0.93;;;19.60;44.30;;;;;;5012638;28;20278;-67
2023/04/12 05:29:48;;;;;;;3.70;1.10;;;19.60;44.30;;;;;;5014167;28;20222;-67
2023/04/12 05:32:14;;;;;;;1.63;1.43;;;19.60;44.30;;;;;;5011916;28;20230;-67
2023/04/12 05:34:41;;;;;;;1.00;0.90;;;19.60;44.30;;;;;;5013442;28;20233;-67
2023/04/12 05:37:06;;;;;;;1.67;1.10;;;19.60;44.30;;;;;;5009616;28;20266;-70
2023/04/12 05:39:32;;;;;;;1.20;1.10;;;19.60;44.30;;;;;;5014274;28;20955;-68
2023/04/12 05:41:58;;;;;;;1.90;1.20;;;19.60;44.30;;;;;;5015678;28;20245;-69
2023/04/12 05:44:23;;;;;;;1.30;1.20;;;19.50;44.20;;;;;;5020147;28;20233;-67
2023/04/12 05:46:49;;;;;;;1.10;1.00;;;19.60;44.30;;;;;;5016127;28;20706;-69
2023/04/12 05:49:15;;;;;;;1.03;0.93;;;19.60;44.30;;;;;;5014956;28;20219;-70
2023/04/12 05:51:40;;;;;;;1.20;0.93;;;19.60;44.30;;;;;;5006631;28;20369;-70
2023/04/12 05:54:06;;;;;;;0.90;0.90;;;19.60;44.30;;;;;;5015265;28;20316;-67
2023/04/12 05:56:32;;;;;;;1.20;1.00;;;19.60;44.30;;;;;;5014023;28;20850;-65
2023/04/12 05:59:00;;;;;;;1.37;1.10;;;19.50;44.20;;;;;;5004959;28;20245;-72
2023/04/12 06:01:33;;;;;;;1.20;1.10;;;19.60;44.30;;;;;;5008675;28;20478;-67
2023/04/12 06:03:58;;;;;;;1.47;1.10;;;19.60;44.30;;;;;;5012074;28;20862;-68
2023/04/12 06:06:29;;;;;;;1.20;1.10;;;19.60;44.30;;;;;;5008442;28;20790;-68
2023/04/12 06:08:59;;;;;;;1.40;1.30;;;19.60;44.30;;;;;;5023663;28;20667;-68
2023/04/12 06:11:24;;;;;;;1.47;1.27;;;19.60;44.30;;;;;;5013775;28;20427;-68
2023/04/12 06:13:50;;;;;;;1.50;1.40;;;19.60;44.30;;;;;;5010194;28;20522;-69
2023/04/12 06:16:15;;;;;;;1.30;1.10;;;19.50;44.20;;;;;;5011925;28;21116;-69
2023/04/12 06:18:41;;;;;;;1.63;1.33;;;19.50;44.20;;;;;;5009013;28;20231;-68
2023/04/12 06:21:07;;;;;;;1.83;1.10;;;19.60;44.30;;;;;;5008970;28;20219;-68
2023/04/12 06:23:32;;;;;;;1.97;1.40;;;19.60;44.30;;;;;;4998651;28;21034;-67
2023/04/12 06:25:58;;;;;;;2.30;1.67;;;19.50;44.20;;;;;;4999857;28;20309;-68
2023/04/12 06:28:23;;;;;;;2.70;1.83;;;19.60;44.30;;;;;;5013173;28;20235;-68
2023/04/12 06:30:49;;;;;;;1.50;1.40;;;19.60;44.30;;;;;;5016539;28;20219;-68
2023/04/12 06:33:14;;;;;;;1.53;1.43;;;19.60;44.30;;;;;;5016420;28;20260;-67
2023/04/12 06:35:40;;;;;;;4.50;1.43;;;19.60;44.30;;;;;;5012239;28;20312;-69
2023/04/12 06:38:06;;;;;;;1.67;1.50;;;19.50;44.20;;;;;;5013299;28;20868;-68
2023/04/12 06:40:31;;;;;;;2.03;1.60;;;19.60;44.30;;;;;;5012535;28;20230;-68
2023/04/12 06:42:57;;;;;;;1.60;1.50;;;19.50;44.20;;;;;;5012398;28;20261;-68
2023/04/12 06:45:23;;;;;;;1.87;1.53;;;19.60;44.30;;;;;;5009888;28;20265;-67
2023/04/12 06:47:48;;;;;;;1.70;1.50;;;19.60;44.30;;;;;;5011688;28;20879;-67
2023/04/12 06:50:14;;;;;;;1.53;1.43;;;19.60;44.30;;;;;;5014494;28;20222;-68
2023/04/12 06:52:40;;;;;;;1.40;1.30;;;19.60;44.50;;;;;;5015296;28;20239;-68
2023/04/12 06:55:06;;;;;;;2.03;1.83;;;19.60;44.30;;;;;;5014794;28;20246;-66
2023/04/12 06:57:31;;;;;;;1.90;1.70;;;19.60;44.30;;;;;;5011832;28;20234;-64
2023/04/12 06:59:57;;;;;;;9.30;1.60;;;19.60;44.30;;;;;;5014767;28;20438;-67
2023/04/12 07:02:23;;;;;;;8.67;2.63;;;19.60;44.30;;;;;;5011968;28;20740;-67
2023/04/12 07:04:53;;;;;;;1.67;1.57;;;19.60;44.30;;;;;;5009468;28;20254;-68
2023/04/12 07:07:19;;;;;;;1.70;1.60;;;19.60;44.30;;;;;;5012556;28;20232;-69
2023/04/12 07:09:46;;;;;;;2.90;2.00;;;19.60;44.30;;;;;;5013753;28;20457;-68
2023/04/12 07:12:12;;;;;;;2.13;1.63;;;19.60;45.10;;;;;;5013013;28;21066;-67
2023/04/12 07:14:38;;;;;;;3.27;1.80;;;19.60;44.30;;;;;;5017478;28;20490;-70
2023/04/12 07:17:04;;;;;;;2.47;2.00;;;19.60;44.30;;;;;;5011810;28;21156;-66
2023/04/12 07:19:30;;;;;;;2.00;1.67;;;19.60;44.30;;;;;;5018053;28;20226;-70
2023/04/12 07:21:55;;;;;;;2.27;2.00;;;19.60;44.30;;;;;;5007519;28;20710;-66
2023/04/12 07:24:21;;;;;;;2.00;1.50;;;19.50;44.20;;;;;;5014136;28;20435;-67
2023/04/12 07:26:46;;;;;;;1.90;1.80;;;19.60;44.30;;;;;;5012660;28;20230;-67
2023/04/12 07:29:12;;;;;;;2.90;2.20;;;19.60;44.30;;;;;;5013424;28;20237;-68
2023/04/12 07:31:37;;;;;;;1.80;1.70;;;19.60;44.30;;;;;;5010118;28;20794;-70
2023/04/12 07:34:03;;;;;;;2.07;1.87;;;19.60;44.30;;;;;;5008107;28;20226;-67
2023/04/12 07:36:28;;;;;;;1.77;1.67;;;19.60;44.30;;;;;;5016143;28;20758;-67
2023/04/12 07:38:54;;;;;;;3.53;1.63;;;19.60;44.30;;;;;;5014196;28;20238;-66
2023/04/12 07:41:22;;;;;;;3.00;2.03;;;19.60;44.30;;;;;;5008597;28;20214;-69
2023/04/12 07:43:49;;;;;;;2.33;2.10;;;19.60;44.30;;;;;;5009874;28;20659;-70
2023/04/12 07:46:14;;;;;;;2.00;1.90;;;19.60;44.30;;;;;;5009777;28;20490;-67
2023/04/12 07:48:42;;;;;;;2.00;1.80;;;19.60;44.30;;;;;;5017511;28;20460;-67
2023/04/12 07:51:08;;;;;;;2.30;2.10;;;19.60;44.40;;;;;;5016762;28;20321;-67
2023/04/12 07:53:33;;;;;;;1.77;1.67;;;19.50;44.20;;;;;;5010854;28;20435;-68
2023/04/12 07:55:59;;;;;;;1.50;1.40;;;19.60;44.30;;;;;;5009971;28;20226;-71
2023/04/12 07:58:24;;;;;;;2.00;1.80;;;19.60;44.30;;;;;;5011501;28;20222;-67
2023/04/12 08:00:50;;;;;;;2.13;1.93;;;19.60;44.30;;;;;;5003132;28;20590;-69
2023/04/12 08:03:17;;;;;;;2.20;1.73;;;19.50;44.20;;;;;;5006838;28;20292;-69
2023/04/12 08:05:43;;;;;;;1.93;1.50;;;19.60;44.30;;;;;;5008545;28;20230;-70
2023/04/12 08:08:09;;;;;;;1.60;1.50;;;19.50;44.20;;;;;;5009722;28;20483;-69
2023/04/12 08:10:36;;;;;;;2.17;2.03;;;19.60;44.30;;;;;;5009825;28;20445;-67
2023/04/12 08:13:02;;;;;;;1.83;1.73;;;19.50;44.20;;;;;;5011127;28;20427;-66
2023/04/12 08:15:27;;;;;;;2.10;1.90;;;19.60;44.30;;;;;;5006233;28;20495;-67
2023/04/12 08:17:53;;;;;;;1.47;1.30;;;19.60;44.30;;;;;;5006851;28;20555;-67
2023/04/12 08:20:18;;;;;;;1.83;1.60;;;19.50;44.20;;;;;;5008862;28;20224;-70
2023/04/12 08:22:45;;;;;;;2.13;1.77;;;19.50;44.20;;;;;;5011753;28;20854;-70
2023/04/12 08:25:11;;;;;;;2.00;1.90;;;19.60;44.30;;;;;;5013698;28;20223;-67
2023/04/12 08:27:40;;;;;;;1.87;1.73;;;19.50;44.20;;;;;;5003102;28;20462;-68
2023/04/12 08:30:07;;;;;;;1.93;1.70;;;19.50;44.20;;;;;;5006890;28;20867;-68
2023/04/12 08:32:33;;;;;;;2.50;1.87;;;19.50;44.20;;;;;;5011258;28;20427;-67
2023/04/12 08:34:59;;;;;;;9.53;2.27;;;19.50;44.20;;;;;;5011570;28;20460;-68
2023/04/12 08:37:24;;;;;;;2.33;1.50;;;19.50;44.20;;;;;;5012935;28;20532;-66
2023/04/12 08:39:50;;;;;;;1.73;1.53;;;19.50;44.20;;;;;;5010070;28;20218;-67
2023/04/12 08:42:16;;;;;;;3.00;1.60;;;19.50;44.20;;;;;;5010010;28;20300;-67
2023/04/12 08:44:42;;;;;;;2.27;1.70;;;19.50;44.20;;;;;;5008732;28;20222;-68
2023/04/12 08:47:09;;;;;;;1.87;1.77;;;19.50;44.20;;;;;;5007466;28;20487;-67
2023/04/12 08:49:35;;;;;;;1.80;1.43;;;19.50;44.20;;;;;;5009756;28;20437;-68
2023/04/12 08:52:07;;;;;;;2.70;1.80;;;19.50;44.20;;;;;;5007525;28;22463;-69
2023/04/12 08:54:33;;;;;;;1.90;1.80;;;19.50;44.20;;;;;;5009481;28;21227;-67
2023/04/12 08:57:01;;;;;;;2.00;1.90;;;19.50;44.20;;;;;;5010021;28;20439;-68
2023/04/12 08:59:28;;;;;;;1.77;1.67;;;19.50;44.20;;;;;;5013728;28;20422;-67
2023/04/12 09:01:54;;;;;;;1.87;1.77;;;19.50;44.20;;;;;;5008426;28;20440;-66
2023/04/12 09:04:20;;;;;;;1.97;1.43;;;19.50;44.20;;;;;;5012594;28;20941;-66
2023/04/12 09:06:45;;;;;;;1.93;1.80;;;19.50;44.20;;;;;;5007415;28;20575;-67
2023/04/12 09:09:11;;;;;;;2.43;1.70;;;19.50;44.20;;;;;;5000008;28;20277;-68
2023/04/12 09:11:36;;;;;;;3.20;1.80;;;19.50;44.20;;;;;;5001068;28;20262;-68
2023/04/12 09:14:02;;;;;;;1.73;1.63;;;19.50;44.20;;;;;;4997960;28;20222;-66
2023/04/12 09:16:39;;;;;;;1.67;1.57;;;19.50;44.20;;;;;;4992521;28;20231;-67
2023/04/12 09:19:05;;;;;;;1.70;1.60;;;19.50;44.20;;;;;;5003915;28;20241;-66
2023/04/12 09:21:34;;;;;;;2.00;1.90;;;19.50;44.20;;;;;;5004834;28;20438;-67
2023/04/12 09:24:12;;;;;;;1.93;1.83;;;19.50;44.20;;;;;;5006364;28;20442;-67
2023/04/12 09:26:38;;;;;;;1.50;1.40;;;19.50;44.20;;;;;;5001389;28;20527;-68
2023/04/12 09:29:04;;;;;;;1.77;1.60;;;19.50;44.20;;;;;;5008504;28;20535;-68
2023/04/12 09:31:30;;;;;;;1.90;1.80;;;19.50;44.20;;;;;;5007217;28;20518;-67
2023/04/12 09:34:07;;;;;;;1.67;1.47;;;19.50;44.20;;;;;;5009554;28;20491;-68
2023/04/12 09:36:40;;;;;;;1.57;1.47;;;19.50;44.20;;;;;;5010695;28;20542;-67
2023/04/12 09:39:06;;;;;;;1.57;1.47;;;19.50;44.30;;;;;;5004833;28;20492;-67
2023/04/12 09:41:32;;;;;;;1.80;1.70;;;19.50;44.20;;;;;;5006546;28;20931;-66
2023/04/12 09:43:59;;;;;;;1.60;1.50;;;19.50;44.20;;;;;;5004677;28;20455;-67
2023/04/12 09:46:24;;;;;;;2.00;1.77;;;19.50;44.30;;;;;;5004742;28;20438;-66
2023/04/12 09:48:57;;;;;;;1.53;1.43;;;19.50;44.20;;;;;;5005173;28;20457;-66
2023/04/12 09:51:35;;;;;;;1.43;1.33;;;19.50;44.20;;;;;;5005797;28;20789;-67
2023/04/12 09:54:03;;;;;;;1.53;1.43;;;19.50;44.20;;;;;;5019085;28;21353;-67
2023/04/12 09:56:34;;;;;;;1.90;1.80;;;19.50;44.20;;;;;;5015613;28;20441;-66
2023/04/12 09:59:06;;;;;;;2.20;2.00;;;19.50;44.20;;;;;;5018410;28;22296;-67
2023/04/12 10:01:38;;;;;;;1.70;1.50;;;19.50;44.20;;;;;;5019587;28;20430;-65
2023/04/12 10:04:08;;;;;;;1.87;1.73;;;19.50;44.30;;;;;;5016616;28;20468;-67
2023/04/12 10:06:34;;;;;;;1.77;1.50;;;19.50;44.20;;;;;;5019755;28;21507;-67
2023/04/12 10:09:03;;;;;;;1.57;1.47;;;19.50;44.20;;;;;;5019810;28;20448;-67
2023/04/12 10:11:29;;;;;;;1.60;1.50;;;19.50;44.20;;;;;;5014887;28;20466;-66
2023/04/12 10:13:55;;;;;;;1.50;1.20;;;19.50;44.20;;;;;;5016866;28;20427;-66
2023/04/12 10:16:21;;;;;;;1.60;1.50;;;19.50;44.20;;;;;;5017829;28;20310;-68
2023/04/12 10:18:49;;;;;;;1.47;1.20;;;19.50;44.20;;;;;;5016681;28;20498;-69
2023/04/12 10:21:15;;;;;;;1.80;1.70;;;19.50;44.20;;;;;;5008374;28;20748;-67
2023/04/12 10:23:43;;;;;;;1.60;1.50;;;19.50;44.20;;;;;;5010217;28;20423;-66
2023/04/12 10:26:10;;;;;;;1.50;1.30;;;19.50;44.20;;;;;;5015147;28;20430;-68
2023/04/12 10:28:35;;;;;;;1.80;1.43;;;19.50;44.20;;;;;;5008485;28;20835;-67
2023/04/12 10:31:28;;;;;;;2.40;1.50;;;19.50;44.20;;;;;;4997932;28;20449;-67
2023/04/12 10:33:54;;;;;;;2.00;1.37;;;19.50;44.20;;;;;;5005832;28;20222;-67
2023/04/12 10:36:39;;;;;;;1.70;1.60;;;19.50;44.20;;;;;;5003221;28;20489;-68
2023/04/12 10:39:09;;;;;;;1.60;1.50;;;19.50;44.20;;;;;;5005571;28;20453;-68
2023/04/12 10:41:36;;;;;;;1.70;1.60;;;19.50;44.20;;;;;;5015604;28;20463;-70
2023/04/12 10:44:27;;;;;;;1.70;1.60;;;19.50;44.20;;;;;;5013402;28;21009;-68
2023/04/12 10:46:52;;;;;;;1.50;1.40;;;19.50;44.20;;;;;;5013662;28;21075;-68
2023/04/12 10:49:18;;;;;;;1.97;1.17;;;19.50;44.20;;;;;;5013396;28;20447;-67
2023/04/12 10:52:08;;;;;;;1.33;1.23;;;19.50;44.20;;;;;;5006768;28;20510;-68
2023/04/12 10:54:34;;;;;;;1.50;1.40;;;19.50;44.20;;;;;;5008034;28;20288;-68
2023/04/12 10:57:01;;;;;;;2.00;1.40;;;19.50;44.20;;;;;;5012102;28;20423;-68
2023/04/12 10:59:50;;;;;;;1.40;1.20;;;19.50;44.20;;;;;;5011246;28;20423;-67
2023/04/12 11:02:16;;;;;;;1.40;1.30;;;19.50;44.20;;;;;;5008385;28;20427;-70
2023/04/12 11:05:18;;;;;;;1.47;1.20;;;19.50;44.20;;;;;;5023681;28;20538;-73
2023/04/12 11:07:44;;;;;;;1.73;1.63;;;19.50;44.20;;;;;;4941055;28;20236;-69
2023/04/12 11:10:18;;;;;;;2.67;1.43;;;19.50;44.20;;;;;;4991368;28;20841;-67
2023/04/12 11:12:49;;;;;;;2.00;1.17;;;19.50;44.20;;;;;;5008450;28;20441;-70
2023/04/12 11:15:15;;;;;;;1.30;1.20;;;19.50;44.20;;;;;;5004703;28;20426;-68
2023/04/12 11:17:41;;;;;;;1.50;1.20;;;19.50;44.20;;;;;;5005889;28;20958;-69
2023/04/12 11:20:11;;;;;;;1.20;1.10;;;19.50;44.30;;;;;;5010974;28;20431;-67
2023/04/12 11:22:37;;;;;;;1.23;1.13;;;19.50;44.30;;;;;;5011902;28;20230;-67
2023/04/12 11:25:03;;;;;;;1.30;1.20;;;19.50;44.20;;;;;;5002260;28;20459;-66
2023/04/12 11:27:30;;;;;;;1.27;1.17;;;19.50;44.20;;;;;;5001476;28;20460;-68
2023/04/12 11:29:58;;;;;;;1.47;1.37;;;19.50;44.20;;;;;;5008483;28;20282;-67
2023/04/12 11:32:26;;;;;;;1.60;1.23;;;19.50;44.20;;;;;;5010529;28;20945;-67
2023/04/12 11:34:54;;;;;;;1.20;1.10;;;19.50;44.20;;;;;;5006034;28;20413;-67
2023/04/12 11:37:21;;;;;;;1.60;1.50;;;19.50;44.20;;;;;;5005979;28;20512;-69
2023/04/12 11:39:48;;;;;;;1.37;1.27;;;19.50;44.20;;;;;;5009914;28;20935;-66
2023/04/12 11:42:20;;;;;;;2.23;1.23;;;19.50;44.20;;;;;;5009044;28;20582;-69
2023/04/12 11:44:46;;;;;;;3.33;1.20;;;19.50;44.20;;;;;;5006237;28;20431;-70
2023/04/12 11:47:16;;;;;;;1.90;1.20;;;19.50;44.20;;;;;;5010497;28;22060;-69
2023/04/12 11:49:43;;;;;;;1.23;1.13;;;19.50;44.20;;;;;;5009331;28;20464;-67
2023/04/12 11:52:09;;;;;;;1.30;1.20;;;19.50;44.20;;;;;;5007786;28;20766;-69
2023/04/12 11:54:34;;;;;;;1.30;1.20;;;19.50;44.20;;;;;;5010153;28;20540;-67
2023/04/12 11:57:00;;;;;;;1.30;1.20;;;19.50;44.20;;;;;;5005249;28;20351;-67
2023/04/12 11:59:33;;;;;;;1.50;1.40;;;19.50;44.20;;;;;;5003384;28;22258;-69
2023/04/12 12:02:03;;;;;;;1.30;1.20;;;19.50;44.20;;;;;;5009117;28;20679;-70
2023/04/12 12:04:30;;;;;;;1.97;1.60;;;19.50;44.20;;;;;;5008386;28;20874;-67
2023/04/12 12:06:57;;;;;;;1.97;1.87;;;19.50;44.20;;;;;;5007799;28;21180;-66
2023/04/12 12:09:24;;;;;;;1.50;1.40;;;19.50;44.20;;;;;;5010097;28;20419;-67
2023/04/12 12:11:50;;;;;;;1.20;1.10;;;19.50;44.20;;;;;;5006887;28;20451;-69
2023/04/12 12:14:20;;;;;;;1.70;1.20;;;19.50;44.20;;;;;;5004889;28;20496;-69
2023/04/12 12:16:54;;;;;;;1.50;1.40;;;19.50;44.20;;;;;;5004345;28;20470;-69
2023/04/12 12:19:28;;;;;;;1.50;1.30;;;19.50;44.30;;;;;;5006471;28;21149;-67
2023/04/12 12:21:53;;;;;;;1.40;1.30;;;19.50;44.20;;;;;;5007022;28;20430;-68
2023/04/12 12:24:21;;;;;;;1.20;1.10;;;19.50;44.20;;;;;;5005105;28;20460;-68
2023/04/12 12:26:49;;;;;;;1.20;1.10;;;19.50;44.20;;;;;;5005993;28;20253;-66
2023/04/12 12:29:18;;;;;;;1.20;1.10;;;19.50;44.20;;;;;;5005112;28;20434;-69
2023/04/12 12:31:47;;;;;;;1.73;1.17;;;19.50;44.20;;;;;;5004160;28;20781;-67
2023/04/12 12:34:13;;;;;;;1.30;1.20;;;19.50;44.20;;;;;;5004434;28;20430;-67
2023/04/12 12:36:39;;;;;;;1.70;1.27;;;19.50;44.20;;;;;;5002168;28;20464;-71
2023/04/12 12:39:10;;;;;;;1.73;1.47;;;19.50;44.20;;;;;;5005951;28;20313;-66
2023/04/12 12:41:36;;;;;;;1.27;1.17;;;19.50;44.20;;;;;;5004401;28;20222;-67
2023/04/12 12:44:02;;;;;;;1.30;1.20;;;19.50;44.20;;;;;;5007486;28;20460;-69
2023/04/12 12:46:28;;;;;;;1.50;1.40;;;19.50;44.30;;;;;;4994973;28;21279;-66
2023/04/12 12:48:54;;;;;;;1.60;1.10;;;19.50;44.20;;;;;;5003847;28;20450;-68
2023/04/12 12:51:19;;;;;;;1.53;1.43;;;19.50;44.20;;;;;;5004141;28;20525;-68